RSC73MZ GCLA-GCXO
Flight info
| Callsign | RSC73MZ |
|---|---|
| Flight time | 0h 24m |
| Altitude | 8000 |
| Route | TFN |
| Aircraft | AT76/M-SDFGRY/LB1 |
Departure
| Time | 2026-04-28 21:10 |
|---|---|
| Airport | La Palma Airport (GCLA) |
Arrival
| Time | 2026-04-28 21:35 |
|---|---|
| Airport | Tenerife Norte-Ciudad de La Laguna Airport (GCXO) |
| Time | Latitude | Longitude | Altitude | Speed | Heading |
|---|---|---|---|---|---|
| 2026-04-28 20:46 | 28.62292 | -17.75362 | 83 ft | 0 kts | 89° |
| 2026-04-28 21:03 | 28.62292 | -17.75361 | 111 ft | 1 kts | 89° |
| 2026-04-28 21:03 | 28.62292 | -17.75369 | 111 ft | 4 kts | 90° |
| 2026-04-28 21:03 | 28.62292 | -17.75420 | 110 ft | 8 kts | 92° |
| 2026-04-28 21:04 | 28.62303 | -17.75445 | 109 ft | 1 kts | 170° |
| 2026-04-28 21:04 | 28.62309 | -17.75447 | 110 ft | 1 kts | 170° |
| 2026-04-28 21:04 | 28.62310 | -17.75447 | 110 ft | 3 kts | 170° |
| 2026-04-28 21:04 | 28.62272 | -17.75439 | 110 ft | 7 kts | 170° |
| 2026-04-28 21:05 | 28.62217 | -17.75433 | 110 ft | 9 kts | 177° |
| 2026-04-28 21:05 | 28.62150 | -17.75432 | 109 ft | 10 kts | 181° |
| 2026-04-28 21:05 | 28.62076 | -17.75438 | 111 ft | 11 kts | 182° |
| 2026-04-28 21:05 | 28.61995 | -17.75440 | 111 ft | 12 kts | 180° |
| 2026-04-28 21:06 | 28.61963 | -17.75438 | 111 ft | 0 kts | 158° |
| 2026-04-28 21:06 | 28.61961 | -17.75434 | 111 ft | 1 kts | 117° |
| 2026-04-28 21:06 | 28.61965 | -17.75430 | 107 ft | 1 kts | 51° |
| 2026-04-28 21:06 | 28.61973 | -17.75429 | 108 ft | 2 kts | 2° |
| 2026-04-28 21:07 | 28.62018 | -17.75433 | 111 ft | 12 kts | 354° |
| 2026-04-28 21:07 | 28.62085 | -17.75491 | 112 ft | 11 kts | 276° |
| 2026-04-28 21:07 | 28.62054 | -17.75544 | 110 ft | 8 kts | 196° |
| 2026-04-28 21:07 | 28.61991 | -17.75548 | 113 ft | 11 kts | 180° |
| 2026-04-28 21:08 | 28.61900 | -17.75547 | 113 ft | 14 kts | 179° |
| 2026-04-28 21:08 | 28.61799 | -17.75545 | 111 ft | 15 kts | 179° |
| 2026-04-28 21:08 | 28.61697 | -17.75565 | 109 ft | 15 kts | 208° |
| 2026-04-28 21:08 | 28.61622 | -17.75539 | 107 ft | 7 kts | 84° |
| 2026-04-28 21:09 | 28.61632 | -17.75527 | 107 ft | 1 kts | 15° |
| 2026-04-28 21:09 | 28.61655 | -17.75528 | 108 ft | 12 kts | 352° |
| 2026-04-28 21:09 | 28.61838 | -17.75543 | 112 ft | 52 kts | 359° |
| 2026-04-28 21:09 | 28.62397 | -17.75554 | 110 ft | 107 kts | 359° |
| 2026-04-28 21:10 | 28.63257 | -17.75581 | 309 ft | 130 kts | 357° |
| 2026-04-28 21:10 | 28.64156 | -17.75632 | 807 ft | 130 kts | 358° |
| 2026-04-28 21:10 | 28.65055 | -17.75415 | 1228 ft | 137 kts | 31° |
| 2026-04-28 21:10 | 28.65500 | -17.74492 | 1734 ft | 136 kts | 87° |
| 2026-04-28 21:11 | 28.65266 | -17.73504 | 2240 ft | 127 kts | 112° |
| 2026-04-28 21:11 | 28.64898 | -17.72564 | 2494 ft | 136 kts | 108° |
| 2026-04-28 21:11 | 28.64862 | -17.71488 | 2731 ft | 139 kts | 69° |
| 2026-04-28 21:11 | 28.65198 | -17.70442 | 3036 ft | 143 kts | 67° |
| 2026-04-28 21:12 | 28.65606 | -17.69350 | 3169 ft | 162 kts | 64° |
| 2026-04-28 21:12 | 28.66142 | -17.68072 | 3060 ft | 193 kts | 62° |
| 2026-04-28 21:12 | 28.66860 | -17.66699 | 3091 ft | 209 kts | 56° |
| 2026-04-28 21:12 | 28.67690 | -17.65285 | 3189 ft | 219 kts | 53° |
| 2026-04-28 21:13 | 28.68578 | -17.63951 | 3711 ft | 204 kts | 50° |
| 2026-04-28 21:13 | 28.69464 | -17.62750 | 4270 ft | 192 kts | 48° |
| 2026-04-28 21:13 | 28.70318 | -17.61621 | 4729 ft | 186 kts | 50° |
| 2026-04-28 21:13 | 28.70787 | -17.60269 | 5007 ft | 189 kts | 89° |
| 2026-04-28 21:14 | 28.70669 | -17.58772 | 5346 ft | 191 kts | 98° |
| 2026-04-28 21:14 | 28.70449 | -17.57229 | 5567 ft | 197 kts | 100° |
| 2026-04-28 21:14 | 28.70209 | -17.55702 | 5950 ft | 195 kts | 99° |
| 2026-04-28 21:14 | 28.69977 | -17.54180 | 6297 ft | 194 kts | 99° |
| 2026-04-28 21:15 | 28.69758 | -17.52650 | 6593 ft | 196 kts | 98° |
| 2026-04-28 21:15 | 28.69557 | -17.51117 | 6887 ft | 197 kts | 98° |
| 2026-04-28 21:15 | 28.69361 | -17.49566 | 7179 ft | 198 kts | 97° |
| 2026-04-28 21:15 | 28.69171 | -17.48030 | 7458 ft | 199 kts | 97° |
| 2026-04-28 21:16 | 28.68978 | -17.46466 | 7743 ft | 199 kts | 97° |
| 2026-04-28 21:16 | 28.68784 | -17.44892 | 8028 ft | 201 kts | 97° |
| 2026-04-28 21:16 | 28.68593 | -17.43324 | 8324 ft | 201 kts | 97° |
| 2026-04-28 21:16 | 28.68396 | -17.41740 | 8595 ft | 202 kts | 97° |
| 2026-04-28 21:17 | 28.68196 | -17.40152 | 8838 ft | 205 kts | 97° |
| 2026-04-28 21:17 | 28.67993 | -17.38504 | 8944 ft | 214 kts | 97° |
| 2026-04-28 21:17 | 28.67778 | -17.36785 | 9010 ft | 224 kts | 97° |
| 2026-04-28 21:17 | 28.67554 | -17.34987 | 9034 ft | 234 kts | 97° |
| 2026-04-28 21:18 | 28.67320 | -17.33116 | 9048 ft | 242 kts | 97° |
| 2026-04-28 21:18 | 28.67079 | -17.31190 | 9055 ft | 248 kts | 97° |
| 2026-04-28 21:18 | 28.66921 | -17.29899 | 9054 ft | 251 kts | 97° |
| 2026-04-28 21:18 | 28.66674 | -17.27911 | 9055 ft | 255 kts | 97° |
| 2026-04-28 21:19 | 28.66420 | -17.25893 | 9057 ft | 258 kts | 97° |
| 2026-04-28 21:19 | 28.66166 | -17.23860 | 9059 ft | 260 kts | 97° |
| 2026-04-28 21:19 | 28.65909 | -17.21811 | 9051 ft | 262 kts | 98° |
| 2026-04-28 21:19 | 28.65648 | -17.19746 | 9052 ft | 263 kts | 97° |
| 2026-04-28 21:20 | 28.65391 | -17.17686 | 9055 ft | 264 kts | 97° |
| 2026-04-28 21:20 | 28.65127 | -17.15614 | 9059 ft | 265 kts | 97° |
| 2026-04-28 21:20 | 28.64857 | -17.13535 | 9058 ft | 265 kts | 98° |
| 2026-04-28 21:20 | 28.64588 | -17.11452 | 9058 ft | 266 kts | 98° |
| 2026-04-28 21:21 | 28.64319 | -17.09372 | 9060 ft | 266 kts | 98° |
| 2026-04-28 21:21 | 28.64050 | -17.07292 | 9060 ft | 266 kts | 98° |
| 2026-04-28 21:21 | 28.63778 | -17.05208 | 9051 ft | 266 kts | 98° |
| 2026-04-28 21:21 | 28.63504 | -17.03121 | 9057 ft | 266 kts | 98° |
| 2026-04-28 21:22 | 28.63232 | -17.01048 | 9053 ft | 266 kts | 98° |
| 2026-04-28 21:22 | 28.62957 | -16.98968 | 9052 ft | 265 kts | 98° |
| 2026-04-28 21:22 | 28.62683 | -16.96886 | 9057 ft | 265 kts | 98° |
| 2026-04-28 21:22 | 28.62409 | -16.94815 | 9059 ft | 265 kts | 98° |
| 2026-04-28 21:23 | 28.62138 | -16.92766 | 9052 ft | 265 kts | 98° |
| 2026-04-28 21:23 | 28.61864 | -16.90685 | 9060 ft | 265 kts | 98° |
| 2026-04-28 21:23 | 28.61590 | -16.88614 | 9058 ft | 265 kts | 98° |
| 2026-04-28 21:23 | 28.61316 | -16.86546 | 9055 ft | 265 kts | 98° |
| 2026-04-28 21:24 | 28.61040 | -16.84461 | 9060 ft | 265 kts | 98° |
| 2026-04-28 21:24 | 28.60766 | -16.82389 | 9063 ft | 265 kts | 98° |
| 2026-04-28 21:24 | 28.60491 | -16.80318 | 9063 ft | 265 kts | 98° |
| 2026-04-28 21:24 | 28.60217 | -16.78253 | 9062 ft | 265 kts | 98° |
| 2026-04-28 21:25 | 28.59941 | -16.76183 | 9066 ft | 265 kts | 98° |
| 2026-04-28 21:25 | 28.59665 | -16.74115 | 9062 ft | 265 kts | 98° |
| 2026-04-28 21:25 | 28.59387 | -16.72038 | 9062 ft | 265 kts | 98° |
| 2026-04-28 21:25 | 28.59111 | -16.69972 | 9070 ft | 265 kts | 98° |
| 2026-04-28 21:26 | 28.58833 | -16.67907 | 9070 ft | 265 kts | 98° |
| 2026-04-28 21:26 | 28.58553 | -16.65829 | 9064 ft | 264 kts | 98° |
| 2026-04-28 21:26 | 28.58275 | -16.63767 | 9072 ft | 264 kts | 98° |
| 2026-04-28 21:26 | 28.57995 | -16.61696 | 9075 ft | 264 kts | 98° |
| 2026-04-28 21:27 | 28.57717 | -16.59629 | 9066 ft | 264 kts | 98° |
| 2026-04-28 21:27 | 28.57442 | -16.57589 | 9071 ft | 264 kts | 98° |
| 2026-04-28 21:27 | 28.57158 | -16.55487 | 9012 ft | 267 kts | 98° |
| 2026-04-28 21:27 | 28.56875 | -16.53391 | 8903 ft | 270 kts | 98° |
| 2026-04-28 21:28 | 28.56591 | -16.51293 | 8795 ft | 272 kts | 98° |
| 2026-04-28 21:28 | 28.56302 | -16.49156 | 8643 ft | 272 kts | 98° |
| 2026-04-28 21:28 | 28.56013 | -16.47051 | 8491 ft | 267 kts | 98° |
| 2026-04-28 21:28 | 28.55732 | -16.44981 | 8341 ft | 263 kts | 98° |
| 2026-04-28 21:29 | 28.55457 | -16.42930 | 8095 ft | 263 kts | 98° |
| 2026-04-28 21:29 | 28.55180 | -16.40868 | 7819 ft | 264 kts | 98° |
| 2026-04-28 21:29 | 28.54905 | -16.38803 | 7558 ft | 264 kts | 98° |
| 2026-04-28 21:29 | 28.54632 | -16.36737 | 7295 ft | 264 kts | 98° |
| 2026-04-28 21:30 | 28.54359 | -16.34666 | 6964 ft | 267 kts | 98° |
| 2026-04-28 21:30 | 28.54015 | -16.32590 | 6584 ft | 268 kts | 106° |
| 2026-04-28 21:30 | 28.53322 | -16.30622 | 6185 ft | 269 kts | 116° |
| 2026-04-28 21:30 | 28.52439 | -16.28737 | 5764 ft | 268 kts | 122° |
| 2026-04-28 21:31 | 28.51234 | -16.27131 | 5381 ft | 267 kts | 134° |
| 2026-04-28 21:31 | 28.49935 | -16.25639 | 5127 ft | 263 kts | 135° |
| 2026-04-28 21:31 | 28.48479 | -16.24443 | 4623 ft | 262 kts | 160° |
| 2026-04-28 21:31 | 28.46690 | -16.24067 | 4057 ft | 263 kts | 175° |
| 2026-04-28 21:32 | 28.44949 | -16.24353 | 3492 ft | 243 kts | 207° |
| 2026-04-28 21:32 | 28.43830 | -16.25572 | 3257 ft | 210 kts | 248° |
| 2026-04-28 21:32 | 28.43825 | -16.27030 | 3467 ft | 174 kts | 297° |
| 2026-04-28 21:32 | 28.44604 | -16.27922 | 3450 ft | 150 kts | 330° |
| 2026-04-28 21:33 | 28.45575 | -16.28403 | 3073 ft | 149 kts | 339° |
| 2026-04-28 21:33 | 28.46498 | -16.28834 | 2793 ft | 140 kts | 332° |
| 2026-04-28 21:33 | 28.46938 | -16.29593 | 2643 ft | 118 kts | 279° |
| 2026-04-28 21:33 | 28.47064 | -16.30500 | 2461 ft | 114 kts | 289° |
| 2026-04-28 21:34 | 28.47328 | -16.31326 | 2253 ft | 109 kts | 294° |
| 2026-04-28 21:34 | 28.47596 | -16.32094 | 2161 ft | 101 kts | 291° |
| 2026-04-28 21:34 | 28.47833 | -16.32833 | 2030 ft | 95 kts | 290° |
| 2026-04-28 21:34 | 28.48030 | -16.33441 | 2036 ft | 72 kts | 289° |
| 2026-04-28 21:35 | 28.48140 | -16.33779 | 2039 ft | 38 kts | 290° |
| 2026-04-28 21:35 | 28.48226 | -16.34026 | 2044 ft | 28 kts | 291° |
| 2026-04-28 21:35 | 28.48321 | -16.34163 | 2050 ft | 18 kts | 321° |
| 2026-04-28 21:35 | 28.48388 | -16.34225 | 2049 ft | 0 kts | 321° |
| 2026-04-28 21:37 | 28.48405 | -16.34240 | 2052 ft | 12 kts | 321° |
| 2026-04-28 21:37 | 28.48453 | -16.34371 | 2054 ft | 20 kts | 289° |
| 2026-04-28 21:37 | 28.48490 | -16.34480 | 2059 ft | 11 kts | 292° |
| 2026-04-28 21:38 | 28.48521 | -16.34571 | 2064 ft | 11 kts | 288° |
| 2026-04-28 21:38 | 28.48556 | -16.34678 | 2069 ft | 17 kts | 290° |
| 2026-04-28 21:38 | 28.48604 | -16.34820 | 2076 ft | 21 kts | 290° |
| 2026-04-28 21:38 | 28.48648 | -16.34955 | 2080 ft | 14 kts | 290° |
| 2026-04-28 21:39 | 28.48679 | -16.35050 | 2079 ft | 12 kts | 292° |
| 2026-04-28 21:39 | 28.48750 | -16.35046 | 2074 ft | 13 kts | 24° |
| 2026-04-28 21:39 | 28.48789 | -16.35029 | 2073 ft | 0 kts | 20° |